sensor_id;sensor_type;location;lat;lon;timestamp;temperature;humidity
2447;DHT22;26430;48.818;9.244;2022-08-11T00:01:52;21.90;64.60
2447;DHT22;26430;48.818;9.244;2022-08-11T00:04:21;21.90;64.50
2447;DHT22;26430;48.818;9.244;2022-08-11T00:06:48;22.00;64.40
2447;DHT22;26430;48.818;9.244;2022-08-11T00:09:18;21.70;64.30
2447;DHT22;26430;48.818;9.244;2022-08-11T00:14:26;21.70;64.70
2447;DHT22;26430;48.818;9.244;2022-08-11T00:19:25;21.60;64.90
2447;DHT22;26430;48.818;9.244;2022-08-11T00:21:52;21.60;64.90
2447;DHT22;26430;48.818;9.244;2022-08-11T00:24:19;21.60;65.10
2447;DHT22;26430;48.818;9.244;2022-08-11T00:26:50;21.60;65.20
2447;DHT22;26430;48.818;9.244;2022-08-11T00:29:17;21.70;65.00
2447;DHT22;26430;48.818;9.244;2022-08-11T00:31:51;21.70;65.00
2447;DHT22;26430;48.818;9.244;2022-08-11T00:34:29;21.80;64.80
2447;DHT22;26430;48.818;9.244;2022-08-11T00:37:06;21.70;65.10
2447;DHT22;26430;48.818;9.244;2022-08-11T00:39:35;21.70;65.10
2447;DHT22;26430;48.818;9.244;2022-08-11T00:42:26;21.70;65.10
2447;DHT22;26430;48.818;9.244;2022-08-11T01:06:40;21.20;67.40
2447;DHT22;26430;48.818;9.244;2022-08-11T01:09:53;21.20;68.10
2447;DHT22;26430;48.818;9.244;2022-08-11T01:15:49;21.00;68.70
2447;DHT22;26430;48.818;9.244;2022-08-11T01:36:00;20.40;71.20
2447;DHT22;26430;48.818;9.244;2022-08-11T01:41:58;20.40;71.60
2447;DHT22;26430;48.818;9.244;2022-08-11T01:45:15;20.30;71.30
2447;DHT22;26430;48.818;9.244;2022-08-11T01:53:33;20.20;72.50
2447;DHT22;26430;48.818;9.244;2022-08-11T01:58:54;20.20;72.90
2447;DHT22;26430;48.818;9.244;2022-08-11T02:12:31;19.60;76.60
2447;DHT22;26430;48.818;9.244;2022-08-11T02:17:52;19.50;76.40
2447;DHT22;26430;48.818;9.244;2022-08-11T02:20:34;19.40;76.80
2447;DHT22;26430;48.818;9.244;2022-08-11T02:23:58;19.30;76.60
2447;DHT22;26430;48.818;9.244;2022-08-11T02:26:39;19.30;76.90
2447;DHT22;26430;48.818;9.244;2022-08-11T02:29:11;19.20;77.20
2447;DHT22;26430;48.818;9.244;2022-08-11T02:31:55;19.20;77.60
2447;DHT22;26430;48.818;9.244;2022-08-11T02:37:24;19.10;77.80
2447;DHT22;26430;48.818;9.244;2022-08-11T02:42:32;19.00;78.30
2447;DHT22;26430;48.818;9.244;2022-08-11T02:51:44;19.00;79.60
2447;DHT22;26430;48.818;9.244;2022-08-11T02:57:12;19.10;78.90
2447;DHT22;26430;48.818;9.244;2022-08-11T03:00:03;19.00;79.20
2447;DHT22;26430;48.818;9.244;2022-08-11T03:02:52;19.00;79.30
2447;DHT22;26430;48.818;9.244;2022-08-11T03:05:54;19.00;79.70
2447;DHT22;26430;48.818;9.244;2022-08-11T03:08:46;18.80;80.40
2447;DHT22;26430;48.818;9.244;2022-08-11T03:14:30;18.60;81.30
2447;DHT22;26430;48.818;9.244;2022-08-11T03:25:33;18.40;82.60
2447;DHT22;26430;48.818;9.244;2022-08-11T03:33:38;18.30;83.20
2447;DHT22;26430;48.818;9.244;2022-08-11T03:36:51;18.30;83.90
2447;DHT22;26430;48.818;9.244;2022-08-11T03:39:56;18.30;83.80
2447;DHT22;26430;48.818;9.244;2022-08-11T03:42:42;18.40;83.70
2447;DHT22;26430;48.818;9.244;2022-08-11T03:45:34;18.20;84.00
2447;DHT22;26430;48.818;9.244;2022-08-11T03:59:44;17.90;86.00
2447;DHT22;26430;48.818;9.244;2022-08-11T04:20:18;17.60;88.50
2447;DHT22;26430;48.818;9.244;2022-08-11T04:22:59;17.60;89.40
2447;DHT22;26430;48.818;9.244;2022-08-11T04:26:04;17.50;90.00
2447;DHT22;26430;48.818;9.244;2022-08-11T04:31:59;17.60;90.40
2447;DHT22;26430;48.818;9.244;2022-08-11T04:58:03;17.60;92.30
2447;DHT22;26430;48.818;9.244;2022-08-11T05:04:58;17.80;91.90
2447;DHT22;26430;48.818;9.244;2022-08-11T05:11:14;17.60;92.70
2447;DHT22;26430;48.818;9.244;2022-08-11T05:13:49;17.60;93.20
2447;DHT22;26430;48.818;9.244;2022-08-11T05:16:47;17.60;93.30
2447;DHT22;26430;48.818;9.244;2022-08-11T05:19:33;17.70;93.60
2447;DHT22;26430;48.818;9.244;2022-08-11T05:22:18;17.90;93.60
2447;DHT22;26430;48.818;9.244;2022-08-11T05:25:11;17.90;93.90
2447;DHT22;26430;48.818;9.244;2022-08-11T05:28:10;17.80;94.10
2447;DHT22;26430;48.818;9.244;2022-08-11T05:31:02;17.80;94.30
2447;DHT22;26430;48.818;9.244;2022-08-11T05:34:00;17.90;95.00
2447;DHT22;26430;48.818;9.244;2022-08-11T05:36:52;17.90;94.90
2447;DHT22;26430;48.818;9.244;2022-08-11T05:39:24;18.00;94.90
2447;DHT22;26430;48.818;9.244;2022-08-11T05:42:10;18.00;95.10
2447;DHT22;26430;48.818;9.244;2022-08-11T05:45:00;18.00;95.30
2447;DHT22;26430;48.818;9.244;2022-08-11T05:47:49;18.00;95.40
2447;DHT22;26430;48.818;9.244;2022-08-11T05:50:33;18.10;95.30
2447;DHT22;26430;48.818;9.244;2022-08-11T05:53:18;18.30;95.00
2447;DHT22;26430;48.818;9.244;2022-08-11T05:56:04;18.40;95.10
2447;DHT22;26430;48.818;9.244;2022-08-11T05:58:53;18.40;94.90
2447;DHT22;26430;48.818;9.244;2022-08-11T06:01:28;18.50;94.90
2447;DHT22;26430;48.818;9.244;2022-08-11T06:04:04;18.60;94.70
2447;DHT22;26430;48.818;9.244;2022-08-11T06:07:01;18.70;94.60
2447;DHT22;26430;48.818;9.244;2022-08-11T06:12:35;19.10;94.30
2447;DHT22;26430;48.818;9.244;2022-08-11T06:15:07;19.00;94.00
2447;DHT22;26430;48.818;9.244;2022-08-11T06:17:42;19.00;94.20
2447;DHT22;26430;48.818;9.244;2022-08-11T06:20:09;19.20;94.00
2447;DHT22;26430;48.818;9.244;2022-08-11T06:22:37;19.20;92.80
2447;DHT22;26430;48.818;9.244;2022-08-11T06:25:06;19.30;92.80
2447;DHT22;26430;48.818;9.244;2022-08-11T06:27:34;19.40;92.90
2447;DHT22;26430;48.818;9.244;2022-08-11T06:30:02;19.40;92.30
2447;DHT22;26430;48.818;9.244;2022-08-11T06:32:40;19.60;91.90
2447;DHT22;26430;48.818;9.244;2022-08-11T06:35:18;19.90;91.30
2447;DHT22;26430;48.818;9.244;2022-08-11T06:38:05;19.90;91.30
2447;DHT22;26430;48.818;9.244;2022-08-11T06:43:52;20.00;90.80
2447;DHT22;26430;48.818;9.244;2022-08-11T06:46:36;20.00;90.60
2447;DHT22;26430;48.818;9.244;2022-08-11T06:49:08;20.10;90.60
2447;DHT22;26430;48.818;9.244;2022-08-11T06:51:57;20.10;90.20
2447;DHT22;26430;48.818;9.244;2022-08-11T06:54:28;20.20;90.30
2447;DHT22;26430;48.818;9.244;2022-08-11T06:56:55;20.30;90.30
2447;DHT22;26430;48.818;9.244;2022-08-11T06:59:40;20.40;90.00
2447;DHT22;26430;48.818;9.244;2022-08-11T07:14:27;21.00;88.50
2447;DHT22;26430;48.818;9.244;2022-08-11T07:17:20;21.10;87.90
2447;DHT22;26430;48.818;9.244;2022-08-11T07:19:56;21.10;87.90
2447;DHT22;26430;48.818;9.244;2022-08-11T07:22:44;21.20;88.30
2447;DHT22;26430;48.818;9.244;2022-08-11T07:25:32;21.30;88.60
2447;DHT22;26430;48.818;9.244;2022-08-11T07:28:22;21.40;88.40
2447;DHT22;26430;48.818;9.244;2022-08-11T07:31:11;21.50;87.90
2447;DHT22;26430;48.818;9.244;2022-08-11T07:36:49;21.80;86.80
2447;DHT22;26430;48.818;9.244;2022-08-11T07:39:21;22.00;86.50
2447;DHT22;26430;48.818;9.244;2022-08-11T07:41:50;22.10;86.40
2447;DHT22;26430;48.818;9.244;2022-08-11T07:44:16;22.20;86.00
2447;DHT22;26430;48.818;9.244;2022-08-11T07:46:45;22.30;85.30
2447;DHT22;26430;48.818;9.244;2022-08-11T07:49:33;22.30;84.00
2447;DHT22;26430;48.818;9.244;2022-08-11T07:52:18;22.40;84.90
2447;DHT22;26430;48.818;9.244;2022-08-11T07:54:55;22.50;84.60
2447;DHT22;26430;48.818;9.244;2022-08-11T07:57:24;22.60;84.00
2447;DHT22;26430;48.818;9.244;2022-08-11T08:00:09;22.70;84.40
2447;DHT22;26430;48.818;9.244;2022-08-11T08:02:54;22.70;83.40
2447;DHT22;26430;48.818;9.244;2022-08-11T08:05:39;22.90;83.80
2447;DHT22;26430;48.818;9.244;2022-08-11T08:08:24;22.90;82.90
2447;DHT22;26430;48.818;9.244;2022-08-11T08:11:10;23.10;82.50
2447;DHT22;26430;48.818;9.244;2022-08-11T08:13:54;23.20;81.50
2447;DHT22;26430;48.818;9.244;2022-08-11T08:16:39;23.30;80.40
2447;DHT22;26430;48.818;9.244;2022-08-11T08:19:25;23.40;80.70
2447;DHT22;26430;48.818;9.244;2022-08-11T08:21:51;23.50;80.50
2447;DHT22;26430;48.818;9.244;2022-08-11T08:24:18;23.60;80.50
2447;DHT22;26430;48.818;9.244;2022-08-11T08:26:47;23.60;79.60
2447;DHT22;26430;48.818;9.244;2022-08-11T08:29:32;23.80;79.80
2447;DHT22;26430;48.818;9.244;2022-08-11T08:32:18;23.80;79.40
2447;DHT22;26430;48.818;9.244;2022-08-11T08:34:45;23.90;79.10
2447;DHT22;26430;48.818;9.244;2022-08-11T08:37:11;24.00;77.30
2447;DHT22;26430;48.818;9.244;2022-08-11T08:39:38;24.10;77.90
2447;DHT22;26430;48.818;9.244;2022-08-11T08:42:11;24.20;77.40
2447;DHT22;26430;48.818;9.244;2022-08-11T08:44:54;24.30;77.10
2447;DHT22;26430;48.818;9.244;2022-08-11T08:47:23;24.40;76.30
2447;DHT22;26430;48.818;9.244;2022-08-11T08:50:04;24.40;75.10
2447;DHT22;26430;48.818;9.244;2022-08-11T08:52:36;24.60;75.10
2447;DHT22;26430;48.818;9.244;2022-08-11T08:55:06;24.70;75.10
2447;DHT22;26430;48.818;9.244;2022-08-11T08:57:35;24.80;72.90
2447;DHT22;26430;48.818;9.244;2022-08-11T09:00:04;24.80;73.30
2447;DHT22;26430;48.818;9.244;2022-08-11T09:02:32;24.90;73.30
2447;DHT22;26430;48.818;9.244;2022-08-11T09:04:58;25.20;71.90
2447;DHT22;26430;48.818;9.244;2022-08-11T09:07:24;25.10;70.50
2447;DHT22;26430;48.818;9.244;2022-08-11T09:09:53;25.20;70.70
2447;DHT22;26430;48.818;9.244;2022-08-11T09:12:26;25.20;70.40
2447;DHT22;26430;48.818;9.244;2022-08-11T09:14:52;25.30;69.70
2447;DHT22;26430;48.818;9.244;2022-08-11T09:20:03;25.40;69.40
2447;DHT22;26430;48.818;9.244;2022-08-11T09:22:33;25.50;68.80
2447;DHT22;26430;48.818;9.244;2022-08-11T09:25:18;25.70;68.60
2447;DHT22;26430;48.818;9.244;2022-08-11T09:28:06;25.70;68.80
2447;DHT22;26430;48.818;9.244;2022-08-11T09:30:34;26.10;68.10
2447;DHT22;26430;48.818;9.244;2022-08-11T09:33:03;25.90;68.20
2447;DHT22;26430;48.818;9.244;2022-08-11T09:35:32;26.20;67.80
2447;DHT22;26430;48.818;9.244;2022-08-11T09:37:59;26.20;67.10
2447;DHT22;26430;48.818;9.244;2022-08-11T09:40:48;26.20;66.50
2447;DHT22;26430;48.818;9.244;2022-08-11T09:43:18;26.40;65.90
2447;DHT22;26430;48.818;9.244;2022-08-11T09:46:04;26.40;64.40
2447;DHT22;26430;48.818;9.244;2022-08-11T09:48:36;26.60;64.30
2447;DHT22;26430;48.818;9.244;2022-08-11T09:51:03;26.40;65.50
2447;DHT22;26430;48.818;9.244;2022-08-11T09:53:32;26.30;63.60
2447;DHT22;26430;48.818;9.244;2022-08-11T09:55:59;26.50;62.30
2447;DHT22;26430;48.818;9.244;2022-08-11T09:58:46;26.70;62.50
2447;DHT22;26430;48.818;9.244;2022-08-11T10:01:12;26.70;62.40
2447;DHT22;26430;48.818;9.244;2022-08-11T10:03:56;26.70;61.90
2447;DHT22;26430;48.818;9.244;2022-08-11T10:06:25;26.80;62.80
2447;DHT22;26430;48.818;9.244;2022-08-11T10:09:13;26.70;61.30
2447;DHT22;26430;48.818;9.244;2022-08-11T10:11:41;27.00;62.30
2447;DHT22;26430;48.818;9.244;2022-08-11T10:14:08;27.10;62.60
2447;DHT22;26430;48.818;9.244;2022-08-11T10:16:53;26.90;62.90
2447;DHT22;26430;48.818;9.244;2022-08-11T10:19:20;27.50;60.40
2447;DHT22;26430;48.818;9.244;2022-08-11T10:21:53;27.90;59.50
2447;DHT22;26430;48.818;9.244;2022-08-11T10:24:40;28.90;58.50
2447;DHT22;26430;48.818;9.244;2022-08-11T10:27:26;30.00;57.60
2447;DHT22;26430;48.818;9.244;2022-08-11T10:29:52;30.70;54.50
2447;DHT22;26430;48.818;9.244;2022-08-11T10:32:39;31.10;52.50
2447;DHT22;26430;48.818;9.244;2022-08-11T10:35:23;31.10;51.40
2447;DHT22;26430;48.818;9.244;2022-08-11T10:37:52;32.20;52.10
2447;DHT22;26430;48.818;9.244;2022-08-11T10:40:20;32.00;50.30
2447;DHT22;26430;48.818;9.244;2022-08-11T10:42:55;32.80;49.80
2447;DHT22;26430;48.818;9.244;2022-08-11T10:45:34;32.30;47.90
2447;DHT22;26430;48.818;9.244;2022-08-11T10:48:21;32.00;48.40
2447;DHT22;26430;48.818;9.244;2022-08-11T10:50:48;32.20;48.10
2447;DHT22;26430;48.818;9.244;2022-08-11T10:53:33;31.90;48.30
2447;DHT22;26430;48.818;9.244;2022-08-11T10:56:19;31.90;49.70
2447;DHT22;26430;48.818;9.244;2022-08-11T10:59:05;32.00;49.60
2447;DHT22;26430;48.818;9.244;2022-08-11T11:01:37;32.60;48.80
2447;DHT22;26430;48.818;9.244;2022-08-11T11:04:16;32.60;47.80
2447;DHT22;26430;48.818;9.244;2022-08-11T11:07:07;31.90;48.30
2447;DHT22;26430;48.818;9.244;2022-08-11T11:09:52;31.50;48.30
2447;DHT22;26430;48.818;9.244;2022-08-11T11:12:43;30.90;48.10
2447;DHT22;26430;48.818;9.244;2022-08-11T11:15:29;31.00;49.20
2447;DHT22;26430;48.818;9.244;2022-08-11T11:20:46;31.00;48.00
2447;DHT22;26430;48.818;9.244;2022-08-11T11:23:25;30.90;49.20
2447;DHT22;26430;48.818;9.244;2022-08-11T11:36:54;31.20;47.90
2447;DHT22;26430;48.818;9.244;2022-08-11T11:39:24;31.20;48.10
2447;DHT22;26430;48.818;9.244;2022-08-11T11:41:53;31.00;47.20
2447;DHT22;26430;48.818;9.244;2022-08-11T11:44:20;30.80;48.40
2447;DHT22;26430;48.818;9.244;2022-08-11T11:46:50;30.50;47.80
2447;DHT22;26430;48.818;9.244;2022-08-11T11:49:17;30.80;48.20
2447;DHT22;26430;48.818;9.244;2022-08-11T11:51:46;31.00;47.90
2447;DHT22;26430;48.818;9.244;2022-08-11T11:54:14;31.00;46.60
2447;DHT22;26430;48.818;9.244;2022-08-11T11:56:41;31.10;47.10
2447;DHT22;26430;48.818;9.244;2022-08-11T11:59:08;31.20;47.10
2447;DHT22;26430;48.818;9.244;2022-08-11T12:01:54;31.20;47.90
2447;DHT22;26430;48.818;9.244;2022-08-11T12:04:21;31.10;48.50
2447;DHT22;26430;48.818;9.244;2022-08-11T12:06:47;31.20;47.70
2447;DHT22;26430;48.818;9.244;2022-08-11T12:09:15;30.60;46.60
2447;DHT22;26430;48.818;9.244;2022-08-11T12:11:43;30.70;47.30
2447;DHT22;26430;48.818;9.244;2022-08-11T12:14:28;30.90;48.00
2447;DHT22;26430;48.818;9.244;2022-08-11T12:16:56;31.00;46.70
2447;DHT22;26430;48.818;9.244;2022-08-11T12:19:26;31.00;46.90
2447;DHT22;26430;48.818;9.244;2022-08-11T12:21:56;31.20;46.70
2447;DHT22;26430;48.818;9.244;2022-08-11T12:24:42;31.20;46.40
2447;DHT22;26430;48.818;9.244;2022-08-11T12:27:29;30.60;44.60
2447;DHT22;26430;48.818;9.244;2022-08-11T12:30:04;30.90;46.70
2447;DHT22;26430;48.818;9.244;2022-08-11T12:32:31;31.20;45.20
2447;DHT22;26430;48.818;9.244;2022-08-11T12:34:59;31.30;46.10
2447;DHT22;26430;48.818;9.244;2022-08-11T12:37:30;31.40;46.50
2447;DHT22;26430;48.818;9.244;2022-08-11T12:40:03;31.40;46.30
2447;DHT22;26430;48.818;9.244;2022-08-11T12:42:49;31.50;46.00
2447;DHT22;26430;48.818;9.244;2022-08-11T12:45:36;31.50;45.20
2447;DHT22;26430;48.818;9.244;2022-08-11T12:48:09;31.20;45.00
2447;DHT22;26430;48.818;9.244;2022-08-11T12:51:00;31.30;44.20
2447;DHT22;26430;48.818;9.244;2022-08-11T12:56:23;31.10;43.60
2447;DHT22;26430;48.818;9.244;2022-08-11T12:59:08;31.20;44.20
2447;DHT22;26430;48.818;9.244;2022-08-11T13:01:54;31.30;45.10
2447;DHT22;26430;48.818;9.244;2022-08-11T13:04:41;31.20;45.10
2447;DHT22;26430;48.818;9.244;2022-08-11T13:07:21;31.20;44.50
2447;DHT22;26430;48.818;9.244;2022-08-11T13:09:47;31.60;44.00
2447;DHT22;26430;48.818;9.244;2022-08-11T13:12:14;31.80;42.10
2447;DHT22;26430;48.818;9.244;2022-08-11T13:15:00;31.50;44.10
2447;DHT22;26430;48.818;9.244;2022-08-11T13:17:27;31.90;43.90
2447;DHT22;26430;48.818;9.244;2022-08-11T13:19:57;32.20;41.90
2447;DHT22;26430;48.818;9.244;2022-08-11T13:22:24;32.30;42.50
2447;DHT22;26430;48.818;9.244;2022-08-11T13:24:52;32.50;43.20
2447;DHT22;26430;48.818;9.244;2022-08-11T13:27:20;31.90;42.70
2447;DHT22;26430;48.818;9.244;2022-08-11T13:29:48;32.00;42.90
2447;DHT22;26430;48.818;9.244;2022-08-11T13:32:14;32.30;43.70
2447;DHT22;26430;48.818;9.244;2022-08-11T13:34:41;32.10;42.60
2447;DHT22;26430;48.818;9.244;2022-08-11T13:37:09;32.40;42.50
2447;DHT22;26430;48.818;9.244;2022-08-11T13:39:41;32.20;43.00
2447;DHT22;26430;48.818;9.244;2022-08-11T13:42:13;32.00;41.70
2447;DHT22;26430;48.818;9.244;2022-08-11T13:44:40;32.10;42.60
2447;DHT22;26430;48.818;9.244;2022-08-11T13:47:07;32.30;42.60
2447;DHT22;26430;48.818;9.244;2022-08-11T13:49:39;32.00;40.70
2447;DHT22;26430;48.818;9.244;2022-08-11T13:52:05;31.90;41.20
2447;DHT22;26430;48.818;9.244;2022-08-11T13:54:35;31.50;42.40
2447;DHT22;26430;48.818;9.244;2022-08-11T13:57:07;31.60;42.20
2447;DHT22;26430;48.818;9.244;2022-08-11T13:59:35;31.70;43.20
2447;DHT22;26430;48.818;9.244;2022-08-11T14:02:03;31.80;42.70
2447;DHT22;26430;48.818;9.244;2022-08-11T14:04:57;32.00;43.90
2447;DHT22;26430;48.818;9.244;2022-08-11T14:07:30;32.10;42.90
2447;DHT22;26430;48.818;9.244;2022-08-11T14:09:58;32.30;42.00
2447;DHT22;26430;48.818;9.244;2022-08-11T14:12:31;32.10;42.00
2447;DHT22;26430;48.818;9.244;2022-08-11T14:17:50;31.80;42.40
2447;DHT22;26430;48.818;9.244;2022-08-11T14:20:17;32.10;43.30
2447;DHT22;26430;48.818;9.244;2022-08-11T14:22:44;32.20;41.80
2447;DHT22;26430;48.818;9.244;2022-08-11T14:25:13;32.40;42.30
2447;DHT22;26430;48.818;9.244;2022-08-11T14:27:43;32.30;42.00
2447;DHT22;26430;48.818;9.244;2022-08-11T14:30:10;32.00;42.70
2447;DHT22;26430;48.818;9.244;2022-08-11T14:32:56;31.90;41.70
2447;DHT22;26430;48.818;9.244;2022-08-11T14:35:24;31.50;41.50
2447;DHT22;26430;48.818;9.244;2022-08-11T14:37:50;31.60;40.80
2447;DHT22;26430;48.818;9.244;2022-08-11T14:40:16;31.40;42.90
2447;DHT22;26430;48.818;9.244;2022-08-11T14:43:00;31.50;42.90
2447;DHT22;26430;48.818;9.244;2022-08-11T14:45:45;31.70;42.50
2447;DHT22;26430;48.818;9.244;2022-08-11T14:48:37;31.60;43.30
2447;DHT22;26430;48.818;9.244;2022-08-11T14:51:04;31.50;41.60
2447;DHT22;26430;48.818;9.244;2022-08-11T14:53:30;31.50;42.30
2447;DHT22;26430;48.818;9.244;2022-08-11T14:55:56;31.20;43.20
2447;DHT22;26430;48.818;9.244;2022-08-11T14:58:41;31.30;42.10
2447;DHT22;26430;48.818;9.244;2022-08-11T15:01:07;31.60;44.60
2447;DHT22;26430;48.818;9.244;2022-08-11T15:03:55;31.60;43.20
2447;DHT22;26430;48.818;9.244;2022-08-11T15:06:21;31.40;41.70
2447;DHT22;26430;48.818;9.244;2022-08-11T15:08:49;31.30;41.90
2447;DHT22;26430;48.818;9.244;2022-08-11T15:11:23;31.20;42.90
2447;DHT22;26430;48.818;9.244;2022-08-11T15:14:09;31.10;42.30
2447;DHT22;26430;48.818;9.244;2022-08-11T15:16:39;31.20;42.50
2447;DHT22;26430;48.818;9.244;2022-08-11T15:19:24;31.10;42.30
2447;DHT22;26430;48.818;9.244;2022-08-11T15:21:50;31.10;42.30
2447;DHT22;26430;48.818;9.244;2022-08-11T15:24:35;31.20;41.40
2447;DHT22;26430;48.818;9.244;2022-08-11T15:27:04;31.20;42.50
2447;DHT22;26430;48.818;9.244;2022-08-11T15:29:53;31.20;42.20
2447;DHT22;26430;48.818;9.244;2022-08-11T15:32:40;31.00;42.30
2447;DHT22;26430;48.818;9.244;2022-08-11T15:35:26;30.70;42.00
2447;DHT22;26430;48.818;9.244;2022-08-11T15:38:19;30.70;42.80
2447;DHT22;26430;48.818;9.244;2022-08-11T15:40:47;30.90;43.20
2447;DHT22;26430;48.818;9.244;2022-08-11T15:43:39;30.90;42.80
2447;DHT22;26430;48.818;9.244;2022-08-11T15:46:30;30.70;42.50
2447;DHT22;26430;48.818;9.244;2022-08-11T15:49:04;30.90;42.90
2447;DHT22;26430;48.818;9.244;2022-08-11T15:51:35;30.80;42.30
2447;DHT22;26430;48.818;9.244;2022-08-11T15:54:10;30.70;42.70
2447;DHT22;26430;48.818;9.244;2022-08-11T15:56:43;30.70;42.50
2447;DHT22;26430;48.818;9.244;2022-08-11T15:59:10;30.80;43.30
2447;DHT22;26430;48.818;9.244;2022-08-11T16:01:57;31.00;42.60
2447;DHT22;26430;48.818;9.244;2022-08-11T16:04:46;31.00;42.80
2447;DHT22;26430;48.818;9.244;2022-08-11T16:07:18;31.00;42.20
2447;DHT22;26430;48.818;9.244;2022-08-11T16:09:59;31.00;42.40
2447;DHT22;26430;48.818;9.244;2022-08-11T16:12:31;31.00;43.30
2447;DHT22;26430;48.818;9.244;2022-08-11T16:15:06;30.80;43.60
2447;DHT22;26430;48.818;9.244;2022-08-11T16:18:02;30.80;42.60
2447;DHT22;26430;48.818;9.244;2022-08-11T16:20:30;30.70;42.90
2447;DHT22;26430;48.818;9.244;2022-08-11T16:23:02;30.60;42.90
2447;DHT22;26430;48.818;9.244;2022-08-11T16:25:33;30.40;42.80
2447;DHT22;26430;48.818;9.244;2022-08-11T16:28:01;30.50;43.60
2447;DHT22;26430;48.818;9.244;2022-08-11T16:30:39;30.70;43.00
2447;DHT22;26430;48.818;9.244;2022-08-11T16:33:06;30.70;42.50
2447;DHT22;26430;48.818;9.244;2022-08-11T16:35:35;30.70;42.30
2447;DHT22;26430;48.818;9.244;2022-08-11T16:38:35;30.60;43.00
2447;DHT22;26430;48.818;9.244;2022-08-11T16:41:12;30.70;42.70
2447;DHT22;26430;48.818;9.244;2022-08-11T16:43:44;30.70;42.00
2447;DHT22;26430;48.818;9.244;2022-08-11T16:46:29;30.60;42.50
2447;DHT22;26430;48.818;9.244;2022-08-11T16:49:50;30.60;42.80
2447;DHT22;26430;48.818;9.244;2022-08-11T16:52:17;30.10;42.50
2447;DHT22;26430;48.818;9.244;2022-08-11T16:54:43;30.00;43.20
2447;DHT22;26430;48.818;9.244;2022-08-11T17:00:07;30.30;43.80
2447;DHT22;26430;48.818;9.244;2022-08-11T17:02:42;30.00;44.20
2447;DHT22;26430;48.818;9.244;2022-08-11T17:05:28;30.00;45.00
2447;DHT22;26430;48.818;9.244;2022-08-11T17:08:15;29.80;44.10
2447;DHT22;26430;48.818;9.244;2022-08-11T17:11:02;29.80;44.20
2447;DHT22;26430;48.818;9.244;2022-08-11T17:14:10;29.70;44.60
2447;DHT22;26430;48.818;9.244;2022-08-11T17:16:38;29.70;44.40
2447;DHT22;26430;48.818;9.244;2022-08-11T17:19:20;29.60;44.80
2447;DHT22;26430;48.818;9.244;2022-08-11T17:21:48;29.60;45.30
2447;DHT22;26430;48.818;9.244;2022-08-11T17:24:44;29.50;45.40
2447;DHT22;26430;48.818;9.244;2022-08-11T17:27:12;29.20;44.80
2447;DHT22;26430;48.818;9.244;2022-08-11T17:29:56;29.10;44.90
2447;DHT22;26430;48.818;9.244;2022-08-11T17:35:14;29.10;45.10
2447;DHT22;26430;48.818;9.244;2022-08-11T17:38:19;29.30;45.10
2447;DHT22;26430;48.818;9.244;2022-08-11T17:40:52;29.10;45.50
2447;DHT22;26430;48.818;9.244;2022-08-11T17:43:38;29.10;45.10
2447;DHT22;26430;48.818;9.244;2022-08-11T17:46:24;28.90;45.30
2447;DHT22;26430;48.818;9.244;2022-08-11T17:49:11;28.80;45.80
2447;DHT22;26430;48.818;9.244;2022-08-11T17:51:38;28.60;49.40
2447;DHT22;26430;48.818;9.244;2022-08-11T17:54:24;28.60;48.10
2447;DHT22;26430;48.818;9.244;2022-08-11T17:57:10;28.40;49.00
2447;DHT22;26430;48.818;9.244;2022-08-11T17:59:56;28.50;49.00
2447;DHT22;26430;48.818;9.244;2022-08-11T18:02:35;28.30;48.60
2447;DHT22;26430;48.818;9.244;2022-08-11T18:05:24;28.20;46.80
2447;DHT22;26430;48.818;9.244;2022-08-11T18:07:52;28.30;47.00
2447;DHT22;26430;48.818;9.244;2022-08-11T18:10:39;28.30;47.40
2447;DHT22;26430;48.818;9.244;2022-08-11T18:13:26;28.20;46.90
2447;DHT22;26430;48.818;9.244;2022-08-11T18:16:13;28.10;47.80
2447;DHT22;26430;48.818;9.244;2022-08-11T18:18:57;28.00;47.80
2447;DHT22;26430;48.818;9.244;2022-08-11T18:21:44;28.00;49.50
2447;DHT22;26430;48.818;9.244;2022-08-11T18:24:33;27.90;50.00
2447;DHT22;26430;48.818;9.244;2022-08-11T18:27:21;27.80;50.70
2447;DHT22;26430;48.818;9.244;2022-08-11T18:30:09;27.60;49.60
2447;DHT22;26430;48.818;9.244;2022-08-11T18:32:55;27.40;51.00
2447;DHT22;26430;48.818;9.244;2022-08-11T18:35:41;27.30;51.50
2447;DHT22;26430;48.818;9.244;2022-08-11T18:38:27;27.20;51.20
2447;DHT22;26430;48.818;9.244;2022-08-11T18:41:13;27.10;50.90
2447;DHT22;26430;48.818;9.244;2022-08-11T18:44:01;26.90;51.40
2447;DHT22;26430;48.818;9.244;2022-08-11T18:46:49;26.80;52.20
2447;DHT22;26430;48.818;9.244;2022-08-11T18:49:37;26.70;52.10
2447;DHT22;26430;48.818;9.244;2022-08-11T18:52:22;26.60;53.30
2447;DHT22;26430;48.818;9.244;2022-08-11T18:55:13;26.50;53.60
2447;DHT22;26430;48.818;9.244;2022-08-11T18:58:03;26.30;53.20
2447;DHT22;26430;48.818;9.244;2022-08-11T19:00:48;26.20;53.50
2447;DHT22;26430;48.818;9.244;2022-08-11T19:03:34;26.20;53.80
2447;DHT22;26430;48.818;9.244;2022-08-11T19:06:21;26.10;54.50
2447;DHT22;26430;48.818;9.244;2022-08-11T19:09:10;26.00;53.90
2447;DHT22;26430;48.818;9.244;2022-08-11T19:11:55;25.90;55.00
2447;DHT22;26430;48.818;9.244;2022-08-11T19:14:41;25.80;55.50
2447;DHT22;26430;48.818;9.244;2022-08-11T19:17:29;25.80;53.80
2447;DHT22;26430;48.818;9.244;2022-08-11T19:20:16;25.70;54.50
2447;DHT22;26430;48.818;9.244;2022-08-11T19:23:04;25.60;54.90
2447;DHT22;26430;48.818;9.244;2022-08-11T19:25:49;25.60;54.10
2447;DHT22;26430;48.818;9.244;2022-08-11T19:28:36;25.50;55.20
2447;DHT22;26430;48.818;9.244;2022-08-11T19:31:23;25.50;54.80
2447;DHT22;26430;48.818;9.244;2022-08-11T19:34:07;25.40;55.50
2447;DHT22;26430;48.818;9.244;2022-08-11T19:36:53;25.40;55.20
2447;DHT22;26430;48.818;9.244;2022-08-11T19:39:39;25.40;55.60
2447;DHT22;26430;48.818;9.244;2022-08-11T19:42:25;25.30;56.00
2447;DHT22;26430;48.818;9.244;2022-08-11T19:45:10;25.30;56.30
2447;DHT22;26430;48.818;9.244;2022-08-11T19:47:54;25.20;55.70
2447;DHT22;26430;48.818;9.244;2022-08-11T19:50:39;25.20;55.80
2447;DHT22;26430;48.818;9.244;2022-08-11T19:53:25;25.10;56.00
2447;DHT22;26430;48.818;9.244;2022-08-11T19:56:10;25.10;55.70
2447;DHT22;26430;48.818;9.244;2022-08-11T19:58:56;25.20;55.60
2447;DHT22;26430;48.818;9.244;2022-08-11T20:01:42;25.20;55.50
2447;DHT22;26430;48.818;9.244;2022-08-11T20:04:26;25.10;55.60
2447;DHT22;26430;48.818;9.244;2022-08-11T20:07:11;25.00;55.50
2447;DHT22;26430;48.818;9.244;2022-08-11T20:09:58;24.80;56.20
2447;DHT22;26430;48.818;9.244;2022-08-11T20:12:45;24.60;57.30
2447;DHT22;26430;48.818;9.244;2022-08-11T20:15:31;24.50;56.60
2447;DHT22;26430;48.818;9.244;2022-08-11T20:18:16;24.40;56.90
2447;DHT22;26430;48.818;9.244;2022-08-11T20:21:02;24.30;57.30
2447;DHT22;26430;48.818;9.244;2022-08-11T20:23:47;24.30;57.40
2447;DHT22;26430;48.818;9.244;2022-08-11T20:26:33;24.20;58.00
2447;DHT22;26430;48.818;9.244;2022-08-11T20:29:20;24.20;58.50
2447;DHT22;26430;48.818;9.244;2022-08-11T20:32:07;24.10;57.60
2447;DHT22;26430;48.818;9.244;2022-08-11T20:34:54;24.00;57.60
2447;DHT22;26430;48.818;9.244;2022-08-11T20:37:40;24.00;57.80